MEA418 LOWW-EDDM
Flight info
| Callsign | MEA418 |
|---|---|
| Flight time | 0h 38m |
| Altitude | 26000 |
| Route | SOVIL1C/29 SOVIL DCT SITNI DCT BAGSI DCT MATIG DCT AMADI Q113 NAPSA NAPSA4A |
| Aircraft | A320/M-SDE3FGHIRWY/LB1 |
Departure
| Time | 2026-04-30 18:15 |
|---|---|
| Airport | Vienna International Airport (LOWW) |
Arrival
| Time | 2026-04-30 18:53 |
|---|---|
| Airport | Munich Airport (EDDM) |
| Time | Latitude | Longitude | Altitude | Speed | Heading |
|---|---|---|---|---|---|
| 2026-04-30 17:59 | 48.11901 | 16.55689 | 595 ft | 0 kts | 11° |
| 2026-04-30 18:07 | 48.11889 | 16.55685 | 595 ft | 2 kts | 16° |
| 2026-04-30 18:08 | 48.11860 | 16.55669 | 596 ft | 1 kts | 27° |
| 2026-04-30 18:09 | 48.11832 | 16.55635 | 597 ft | 0 kts | 99° |
| 2026-04-30 18:11 | 48.11761 | 16.55793 | 599 ft | 10 kts | 161° |
| 2026-04-30 18:11 | 48.11589 | 16.56107 | 601 ft | 20 kts | 117° |
| 2026-04-30 18:12 | 48.11424 | 16.56616 | 600 ft | 20 kts | 115° |
| 2026-04-30 18:13 | 48.11303 | 16.56988 | 619 ft | 18 kts | 116° |
| 2026-04-30 18:13 | 48.11144 | 16.57473 | 603 ft | 16 kts | 121° |
| 2026-04-30 18:14 | 48.10966 | 16.57387 | 609 ft | 15 kts | 281° |
| 2026-04-30 18:15 | 48.11752 | 16.54901 | 730 ft | 192 kts | 295° |
| 2026-04-30 18:15 | 48.11895 | 16.48875 | 3310 ft | 228 kts | 239° |
| 2026-04-30 18:16 | 48.09816 | 16.44726 | 4943 ft | 253 kts | 234° |
| 2026-04-30 18:16 | 48.07517 | 16.40458 | 6999 ft | 272 kts | 232° |
| 2026-04-30 18:17 | 48.06298 | 16.38262 | 8096 ft | 277 kts | 232° |
| 2026-04-30 18:17 | 48.05045 | 16.35999 | 9191 ft | 287 kts | 232° |
| 2026-04-30 18:17 | 48.03083 | 16.30731 | 10990 ft | 296 kts | 255° |
| 2026-04-30 18:18 | 48.02696 | 16.27670 | 11789 ft | 305 kts | 269° |
| 2026-04-30 18:18 | 48.02727 | 16.24469 | 12559 ft | 313 kts | 277° |
| 2026-04-30 18:18 | 48.02875 | 16.21125 | 13393 ft | 333 kts | 277° |
| 2026-04-30 18:18 | 48.03023 | 16.17566 | 14158 ft | 354 kts | 277° |
| 2026-04-30 18:19 | 48.03177 | 16.13788 | 14840 ft | 373 kts | 277° |
| 2026-04-30 18:19 | 48.03313 | 16.09838 | 15489 ft | 390 kts | 276° |
| 2026-04-30 18:19 | 48.03424 | 16.05780 | 16091 ft | 400 kts | 276° |
| 2026-04-30 18:19 | 48.03540 | 16.01596 | 16716 ft | 404 kts | 276° |
| 2026-04-30 18:20 | 48.03649 | 15.97367 | 17388 ft | 409 kts | 276° |
| 2026-04-30 18:20 | 48.03753 | 15.93068 | 18067 ft | 414 kts | 276° |
| 2026-04-30 18:20 | 48.03849 | 15.88783 | 18747 ft | 418 kts | 276° |
| 2026-04-30 18:20 | 48.03938 | 15.84425 | 19328 ft | 422 kts | 276° |
| 2026-04-30 18:21 | 48.04011 | 15.80018 | 19904 ft | 426 kts | 276° |
| 2026-04-30 18:21 | 48.04107 | 15.75559 | 20477 ft | 431 kts | 277° |
| 2026-04-30 18:21 | 48.04206 | 15.71123 | 21051 ft | 435 kts | 276° |
| 2026-04-30 18:21 | 48.04292 | 15.66579 | 21614 ft | 440 kts | 276° |
| 2026-04-30 18:22 | 48.04363 | 15.61981 | 22146 ft | 444 kts | 276° |
| 2026-04-30 18:22 | 48.04481 | 15.52659 | 23222 ft | 454 kts | 276° |
| 2026-04-30 18:22 | 48.04534 | 15.47919 | 23782 ft | 458 kts | 276° |
| 2026-04-30 18:23 | 48.04585 | 15.43136 | 24278 ft | 463 kts | 276° |
| 2026-04-30 18:23 | 48.04635 | 15.38305 | 24746 ft | 468 kts | 276° |
| 2026-04-30 18:23 | 48.04694 | 15.33422 | 25224 ft | 472 kts | 277° |
| 2026-04-30 18:23 | 48.04774 | 15.28486 | 25622 ft | 476 kts | 277° |
| 2026-04-30 18:24 | 48.04940 | 15.18570 | 26302 ft | 484 kts | 277° |
| 2026-04-30 18:24 | 48.05018 | 15.13540 | 26400 ft | 486 kts | 277° |
| 2026-04-30 18:24 | 48.05092 | 15.08490 | 26408 ft | 486 kts | 277° |
| 2026-04-30 18:25 | 48.05162 | 15.03441 | 26406 ft | 486 kts | 277° |
| 2026-04-30 18:25 | 48.05308 | 14.93107 | 26407 ft | 513 kts | 276° |
| 2026-04-30 18:25 | 48.05380 | 14.87754 | 26404 ft | 522 kts | 276° |
| 2026-04-30 18:26 | 48.05493 | 14.76905 | 26403 ft | 524 kts | 276° |
| 2026-04-30 18:26 | 48.05533 | 14.71449 | 26398 ft | 525 kts | 276° |
| 2026-04-30 18:26 | 48.05569 | 14.66002 | 26399 ft | 525 kts | 276° |
| 2026-04-30 18:27 | 48.05642 | 14.55078 | 26408 ft | 526 kts | 276° |
| 2026-04-30 18:27 | 48.05675 | 14.49618 | 26389 ft | 526 kts | 276° |
| 2026-04-30 18:28 | 48.05735 | 14.38755 | 26381 ft | 526 kts | 276° |
| 2026-04-30 18:28 | 48.05761 | 14.33278 | 26390 ft | 527 kts | 276° |
| 2026-04-30 18:28 | 48.05806 | 14.22329 | 26379 ft | 527 kts | 275° |
| 2026-04-30 18:29 | 48.05825 | 14.16862 | 26385 ft | 527 kts | 275° |
| 2026-04-30 18:29 | 48.05867 | 14.00415 | 26383 ft | 528 kts | 275° |
| 2026-04-30 18:30 | 48.05881 | 13.91294 | 26379 ft | 525 kts | 275° |
| 2026-04-30 18:30 | 48.05885 | 13.78729 | 26383 ft | 519 kts | 275° |
| 2026-04-30 18:31 | 48.05884 | 13.73331 | 26384 ft | 519 kts | 275° |
| 2026-04-30 18:31 | 48.05874 | 13.62553 | 25988 ft | 516 kts | 275° |
| 2026-04-30 18:32 | 48.05961 | 13.51942 | 25146 ft | 503 kts | 280° |
| 2026-04-30 18:32 | 48.06243 | 13.46800 | 24727 ft | 488 kts | 280° |
| 2026-04-30 18:32 | 48.06759 | 13.37227 | 23919 ft | 452 kts | 281° |
| 2026-04-30 18:33 | 48.06997 | 13.32884 | 23454 ft | 450 kts | 281° |
| 2026-04-30 18:33 | 48.07491 | 13.23722 | 22534 ft | 442 kts | 280° |
| 2026-04-30 18:33 | 48.07732 | 13.19160 | 22106 ft | 439 kts | 280° |
| 2026-04-30 18:34 | 48.07968 | 13.14616 | 21685 ft | 436 kts | 280° |
| 2026-04-30 18:34 | 48.08426 | 13.05652 | 20856 ft | 430 kts | 279° |
| 2026-04-30 18:34 | 48.08650 | 13.01209 | 20450 ft | 427 kts | 279° |
| 2026-04-30 18:35 | 48.08872 | 12.96779 | 20060 ft | 425 kts | 279° |
| 2026-04-30 18:35 | 48.09089 | 12.92418 | 19666 ft | 421 kts | 279° |
| 2026-04-30 18:35 | 48.09446 | 12.88077 | 19283 ft | 415 kts | 285° |
| 2026-04-30 18:36 | 48.10384 | 12.79728 | 18475 ft | 401 kts | 284° |
| 2026-04-30 18:36 | 48.10809 | 12.75665 | 18053 ft | 391 kts | 284° |
| 2026-04-30 18:36 | 48.11684 | 12.67698 | 16651 ft | 385 kts | 284° |
| 2026-04-30 18:37 | 48.12128 | 12.63765 | 15980 ft | 381 kts | 284° |
| 2026-04-30 18:37 | 48.12568 | 12.59879 | 15345 ft | 377 kts | 283° |
| 2026-04-30 18:37 | 48.13004 | 12.56018 | 14709 ft | 373 kts | 283° |
| 2026-04-30 18:37 | 48.13433 | 12.52205 | 14091 ft | 370 kts | 283° |
| 2026-04-30 18:38 | 48.13855 | 12.48450 | 13566 ft | 362 kts | 283° |
| 2026-04-30 18:38 | 48.14272 | 12.44720 | 13406 ft | 366 kts | 282° |
| 2026-04-30 18:38 | 48.14689 | 12.40981 | 13370 ft | 371 kts | 282° |
| 2026-04-30 18:38 | 48.15113 | 12.37169 | 13368 ft | 372 kts | 282° |
| 2026-04-30 18:39 | 48.15536 | 12.33339 | 13371 ft | 372 kts | 282° |
| 2026-04-30 18:39 | 48.15956 | 12.29519 | 13372 ft | 372 kts | 282° |
| 2026-04-30 18:39 | 48.16375 | 12.25701 | 13374 ft | 372 kts | 282° |
| 2026-04-30 18:39 | 48.16793 | 12.21879 | 13370 ft | 372 kts | 282° |
| 2026-04-30 18:40 | 48.17210 | 12.18055 | 13236 ft | 370 kts | 282° |
| 2026-04-30 18:40 | 48.17621 | 12.14268 | 12784 ft | 367 kts | 282° |
| 2026-04-30 18:40 | 48.18026 | 12.10524 | 12175 ft | 363 kts | 282° |
| 2026-04-30 18:40 | 48.18424 | 12.06843 | 11744 ft | 353 kts | 281° |
| 2026-04-30 18:41 | 48.18808 | 12.03257 | 11371 ft | 343 kts | 281° |
| 2026-04-30 18:41 | 48.19181 | 11.99772 | 10930 ft | 335 kts | 281° |
| 2026-04-30 18:41 | 48.19539 | 11.96422 | 10526 ft | 321 kts | 281° |
| 2026-04-30 18:41 | 48.19881 | 11.93203 | 10349 ft | 299 kts | 281° |
| 2026-04-30 18:42 | 48.20196 | 11.90236 | 9967 ft | 287 kts | 281° |
| 2026-04-30 18:42 | 48.20818 | 11.84396 | 8709 ft | 282 kts | 280° |
| 2026-04-30 18:42 | 48.21125 | 11.81502 | 8127 ft | 280 kts | 280° |
| 2026-04-30 18:45 | 48.23738 | 11.54098 | 4999 ft | 258 kts | 263° |
| 2026-04-30 18:45 | 48.23583 | 11.52331 | 5001 ft | 258 kts | 261° |
| 2026-04-30 18:45 | 48.23283 | 11.48770 | 4984 ft | 258 kts | 262° |
| 2026-04-30 18:46 | 48.23070 | 11.46120 | 4881 ft | 255 kts | 262° |
| 2026-04-30 18:46 | 48.22953 | 11.43469 | 4471 ft | 256 kts | 277° |
| 2026-04-30 18:46 | 48.23554 | 11.41053 | 4110 ft | 248 kts | 310° |
| 2026-04-30 18:46 | 48.24857 | 11.39459 | 3989 ft | 242 kts | 342° |
| 2026-04-30 18:47 | 48.26461 | 11.39018 | 3980 ft | 232 kts | 4° |
| 2026-04-30 18:47 | 48.27985 | 11.39430 | 3983 ft | 217 kts | 32° |
| 2026-04-30 18:47 | 48.29067 | 11.40801 | 3988 ft | 200 kts | 59° |
| 2026-04-30 18:47 | 48.29776 | 11.42604 | 3987 ft | 201 kts | 63° |
| 2026-04-30 18:48 | 48.30474 | 11.44408 | 3999 ft | 200 kts | 63° |
| 2026-04-30 18:48 | 48.31177 | 11.46213 | 3996 ft | 197 kts | 63° |
| 2026-04-30 18:48 | 48.31781 | 11.47946 | 3994 ft | 176 kts | 72° |
| 2026-04-30 18:48 | 48.32078 | 11.49683 | 4020 ft | 160 kts | 83° |
| 2026-04-30 18:49 | 48.32185 | 11.51210 | 4000 ft | 141 kts | 85° |
| 2026-04-30 18:49 | 48.32297 | 11.52662 | 4000 ft | 138 kts | 85° |
| 2026-04-30 18:49 | 48.32411 | 11.54079 | 3998 ft | 139 kts | 85° |
| 2026-04-30 18:49 | 48.32528 | 11.55537 | 4000 ft | 141 kts | 85° |
| 2026-04-30 18:50 | 48.32643 | 11.56996 | 3970 ft | 141 kts | 85° |
| 2026-04-30 18:50 | 48.32724 | 11.58456 | 3779 ft | 140 kts | 86° |
| 2026-04-30 18:50 | 48.32808 | 11.59904 | 3495 ft | 137 kts | 83° |
| 2026-04-30 18:50 | 48.32955 | 11.61325 | 3471 ft | 139 kts | 82° |
| 2026-04-30 18:51 | 48.33101 | 11.62787 | 3332 ft | 144 kts | 85° |
| 2026-04-30 18:51 | 48.33214 | 11.64284 | 3122 ft | 144 kts | 84° |
| 2026-04-30 18:51 | 48.33336 | 11.65772 | 2820 ft | 144 kts | 84° |
| 2026-04-30 18:51 | 48.33467 | 11.67274 | 2604 ft | 145 kts | 84° |
| 2026-04-30 18:52 | 48.33580 | 11.68793 | 2416 ft | 147 kts | 85° |
| 2026-04-30 18:52 | 48.33687 | 11.70328 | 2200 ft | 151 kts | 84° |
| 2026-04-30 18:52 | 48.33816 | 11.71902 | 1971 ft | 151 kts | 83° |
| 2026-04-30 18:52 | 48.33941 | 11.73439 | 1767 ft | 146 kts | 84° |
| 2026-04-30 18:53 | 48.34060 | 11.74951 | 1552 ft | 143 kts | 84° |
| 2026-04-30 18:53 | 48.34160 | 11.76314 | 1485 ft | 111 kts | 82° |
| 2026-04-30 18:53 | 48.34227 | 11.77167 | 1484 ft | 59 kts | 81° |
| 2026-04-30 18:53 | 48.34312 | 11.77512 | 1483 ft | 23 kts | 56° |
| 2026-04-30 18:54 | 48.34372 | 11.77638 | 1483 ft | 12 kts | 55° |
| 2026-04-30 18:54 | 48.34395 | 11.77688 | 1480 ft | 0 kts | 55° |
| 2026-04-30 18:54 | 48.34403 | 11.77706 | 1478 ft | 7 kts | 56° |
| 2026-04-30 18:54 | 48.34431 | 11.77767 | 1478 ft | 13 kts | 54° |
| 2026-04-30 18:55 | 48.34523 | 11.77910 | 1484 ft | 13 kts | 23° |
| 2026-04-30 18:55 | 48.34624 | 11.77909 | 1484 ft | 4 kts | 352° |
| 2026-04-30 18:55 | 48.34647 | 11.77904 | 1473 ft | 1 kts | 350° |
| 2026-04-30 18:56 | 48.34678 | 11.77897 | 1483 ft | 0 kts | 351° |
| 2026-04-30 18:56 | 48.34682 | 11.77896 | 1482 ft | 2 kts | 353° |
| 2026-04-30 18:56 | 48.34683 | 11.77896 | 1482 ft | 0 kts | 353° |
| 2026-04-30 18:57 | 48.34695 | 11.77895 | 1478 ft | 1 kts | 356° |
| 2026-04-30 18:57 | 48.34707 | 11.77894 | 1474 ft | 1 kts | 355° |
| 2026-04-30 18:57 | 48.34720 | 11.77892 | 1474 ft | 0 kts | 355° |
| 2026-04-30 18:58 | 48.34721 | 11.77892 | 1475 ft | 1 kts | 355° |
| 2026-04-30 18:58 | 48.34759 | 11.77887 | 1483 ft | 10 kts | 355° |
| 2026-04-30 18:59 | 48.34933 | 11.77855 | 1476 ft | 14 kts | 353° |
| 2026-04-30 19:00 | 48.35243 | 11.77803 | 1470 ft | 16 kts | 353° |
| 2026-04-30 19:00 | 48.35343 | 11.77785 | 1479 ft | 10 kts | 353° |
| 2026-04-30 19:00 | 48.35372 | 11.77731 | 1468 ft | 3 kts | 274° |
| 2026-04-30 19:01 | 48.35369 | 11.77676 | 1470 ft | 0 kts | 263° |